Time;durP1;ratioP1;P1;durP2;ratioP2;P2;SDS_P1;SDS_P2;PMS_P1;PMS_P2;Temp;Humidity;BMP_temperature;BMP_pressure;BME280_temperature;BME280_humidity;BME280_pressure;Samples;Min_cycle;Max_cycle;Signal;HPM_P1;HPM_P2
2021/11/23 00:01:39;;;;;;;8.40;6.80;;;;;;;1.60;100.00;151778.00;5080440;28;20433;-80
2021/11/23 00:04:14;;;;;;;7.43;5.40;;;;;;;1.60;100.00;151778.00;5089618;28;20448;-80
2021/11/23 00:06:51;;;;;;;6.40;5.70;;;;;;;1.50;100.00;151753.63;5082983;28;20460;-80
2021/11/23 00:09:27;;;;;;;9.20;6.37;;;;;;;1.51;100.00;151754.91;5075558;28;20539;-80
2021/11/23 00:12:03;;;;;;;8.00;6.27;;;;;;;1.54;100.00;151762.56;5075162;28;20440;-80
2021/11/23 00:14:38;;;;;;;6.13;4.80;;;;;;;1.55;100.00;151765.16;5071716;28;20821;-80
2021/11/23 00:17:13;;;;;;;8.33;6.90;;;;;;;1.56;100.00;151767.75;5055680;28;20527;-80
2021/11/23 00:19:49;;;;;;;7.40;5.97;;;;;;;1.53;100.00;151761.34;5065548;28;20468;-80
2021/11/23 00:22:26;;;;;;;9.50;5.80;;;;;;;1.51;100.00;151754.91;5069404;28;20436;-80
2021/11/23 00:25:02;;;;;;;8.20;6.43;;;;;;;1.47;100.00;151744.59;5073613;28;20559;-80
2021/11/23 00:27:38;;;;;;;9.10;6.27;;;;;;;1.47;100.00;151744.59;5069323;28;20550;-80
2021/11/23 00:30:14;;;;;;;9.67;6.30;;;;;;;1.43;100.00;151735.59;5093469;28;20897;-80
2021/11/23 00:32:49;;;;;;;7.00;5.83;;;;;;;1.44;100.00;151738.19;5074095;28;20527;-80
2021/11/23 00:35:25;;;;;;;8.40;6.50;;;;;;;1.41;100.00;151730.47;5093938;28;20436;-80
2021/11/23 00:38:02;;;;;;;6.07;5.40;;;;;;;1.45;100.00;151739.47;5054647;28;20787;-80
2021/11/23 00:40:38;;;;;;;7.80;6.20;;;;;;;1.46;100.00;151743.31;5059237;28;20784;-80
2021/11/23 00:43:14;;;;;;;9.27;6.40;;;;;;;1.44;100.00;151736.88;5075045;28;20651;-80
2021/11/23 00:45:49;;;;;;;12.50;6.50;;;;;;;1.40;100.00;151727.94;5082835;28;20561;-80
2021/11/23 00:48:25;;;;;;;8.30;6.33;;;;;;;1.42;100.00;151731.75;5076078;28;20822;-80
2021/11/23 00:51:00;;;;;;;8.13;6.47;;;;;;;1.32;100.00;151706.06;5087600;28;20431;-80
2021/11/23 00:53:39;;;;;;;8.40;5.93;;;;;;;1.32;100.00;151706.06;5054965;28;20843;-80
2021/11/23 00:56:14;;;;;;;7.60;5.73;;;;;;;1.31;100.00;151704.78;5065023;28;20442;-80
2021/11/23 00:58:51;;;;;;;9.07;6.40;;;;;;;1.22;100.00;151682.94;5055410;28;20459;-80
2021/11/23 01:01:26;;;;;;;7.23;5.70;;;;;;;1.17;100.00;151670.09;5075061;28;20459;-80
2021/11/23 01:04:02;;;;;;;8.80;6.30;;;;;;;1.28;100.00;151695.78;5070476;28;20430;-80
2021/11/23 01:06:37;;;;;;;10.77;7.27;;;;;;;1.22;100.00;151682.94;5075109;28;20546;-80
2021/11/23 01:09:14;;;;;;;8.17;6.43;;;;;;;1.23;100.00;151685.53;5074681;28;20946;-80
2021/11/23 01:11:50;;;;;;;8.67;6.70;;;;;;;1.23;100.00;151684.22;5092414;28;20452;-80
2021/11/23 01:14:26;;;;;;;9.20;5.80;;;;;;;1.11;100.00;151653.41;5044198;28;20448;-80
2021/11/23 01:17:01;;;;;;;8.70;6.20;;;;;;;1.15;100.00;151664.97;5075161;28;20441;-80
2021/11/23 01:19:37;;;;;;;9.50;6.53;;;;;;;1.19;100.00;151675.22;5074146;28;20444;-80
2021/11/23 01:22:12;;;;;;;8.50;6.37;;;;;;;0.95;100.00;151612.31;5078484;28;20465;-80
2021/11/23 01:24:49;;;;;;;8.77;6.70;;;;;;;0.97;100.00;151617.44;5071051;28;20446;-80
2021/11/23 01:27:24;;;;;;;9.17;6.50;;;;;;;1.04;100.00;151636.69;5083669;28;21037;-80
2021/11/23 01:30:00;;;;;;;10.83;6.90;;;;;;;1.02;100.00;151631.56;5091053;28;20953;-80
2021/11/23 01:32:36;;;;;;;9.80;6.43;;;;;;;0.99;100.00;151623.84;5086783;28;20478;-80
2021/11/23 01:35:13;;;;;;;9.40;6.23;;;;;;;0.98;100.00;151621.28;5091084;28;20452;-80
2021/11/23 01:37:49;;;;;;;10.17;6.60;;;;;;;0.98;100.00;151621.28;5081126;28;20932;-79
2021/11/23 01:40:26;;;;;;;8.80;6.43;;;;;;;0.92;100.00;151605.91;5055275;28;20541;-80
2021/11/23 01:43:05;;;;;;;12.70;7.40;;;;;;;0.93;100.00;151608.44;5071070;28;20894;-80
2021/11/23 01:45:41;;;;;;;8.57;6.60;;;;;;;0.96;100.00;151616.16;5072182;28;20436;-79
2021/11/23 01:48:16;;;;;;;8.57;6.70;;;;;;;0.90;100.00;151599.47;5079928;28;20445;-80
2021/11/23 01:50:52;;;;;;;7.93;6.30;;;;;;;0.88;100.00;151595.59;5090807;28;20488;-80
2021/11/23 01:53:27;;;;;;;9.10;6.40;;;;;;;0.97;100.00;151618.72;5083589;28;20446;-80
2021/11/23 01:56:05;;;;;;;7.17;5.90;;;;;;;0.87;100.00;151593.06;5091243;28;20456;-80
2021/11/23 01:58:42;;;;;;;9.60;6.70;;;;;;;0.84;100.00;151585.34;5085326;28;20436;-80
2021/11/23 02:01:17;;;;;;;9.30;6.00;;;;;;;0.84;100.00;151585.34;5075212;28;20479;-80
2021/11/23 02:03:52;;;;;;;9.57;6.90;;;;;;;0.83;100.00;151581.47;5068451;28;20779;-80
2021/11/23 02:06:29;;;;;;;9.67;6.40;;;;;;;0.80;100.00;151575.03;5086170;28;20472;-80
2021/11/23 02:09:05;;;;;;;11.20;7.23;;;;;;;0.83;100.00;151582.75;5089974;28;20446;-80
2021/11/23 02:11:42;;;;;;;9.00;6.60;;;;;;;0.82;100.00;151580.16;5091156;28;20522;-80
2021/11/23 02:14:19;;;;;;;9.40;6.87;;;;;;;0.74;100.00;151559.66;5088895;28;20438;-81
2021/11/23 02:16:54;;;;;;;9.50;6.83;;;;;;;0.78;100.00;151568.63;5070859;28;20434;-80
2021/11/23 02:19:30;;;;;;;8.90;6.70;;;;;;;0.77;100.00;151566.09;5070408;28;20436;-80
2021/11/23 02:22:08;;;;;;;9.00;6.57;;;;;;;0.70;100.00;151548.09;5078616;28;20847;-80
2021/11/23 02:24:43;;;;;;;9.60;6.73;;;;;;;0.73;100.00;151557.09;5089578;28;20451;-80
2021/11/23 02:27:19;;;;;;;10.50;7.50;;;;;;;0.63;100.00;151531.41;5090682;28;20483;-80
2021/11/23 02:29:54;;;;;;;9.97;7.03;;;;;;;0.68;100.00;151542.97;5090465;28;20952;-80
2021/11/23 02:32:38;;;;;;;11.03;8.30;;;;;;;0.72;100.00;151553.22;5092089;28;20406;-80
2021/11/23 02:35:13;;;;;;;8.87;6.73;;;;;;;0.64;100.00;151532.72;5088795;28;20820;-80
2021/11/23 02:37:52;;;;;;;9.90;6.20;;;;;;;0.61;100.00;151526.25;5077659;28;20433;-80
2021/11/23 02:40:28;;;;;;;14.10;7.50;;;;;;;0.54;100.00;151508.28;5093988;28;20455;-80
2021/11/23 02:43:04;;;;;;;8.93;6.70;;;;;;;0.57;100.00;151516.00;5095225;28;20471;-80
2021/11/23 02:45:40;;;;;;;9.60;7.20;;;;;;;0.54;100.00;151508.28;5074927;28;20483;-80
2021/11/23 02:48:16;;;;;;;9.00;7.20;;;;;;;0.52;100.00;151503.16;5085114;28;20469;-79
2021/11/23 02:50:58;;;;;;;10.43;7.20;;;;;;;0.53;100.00;151505.75;5078887;28;20459;-80
2021/11/23 02:53:35;;;;;;;10.27;7.60;;;;;;;0.50;100.00;151499.28;5087307;28;20445;-80
2021/11/23 02:56:10;;;;;;;9.87;6.97;;;;;;;0.50;100.00;151499.28;5092641;28;20440;-80
2021/11/23 02:58:49;;;;;;;11.97;7.30;;;;;;;0.44;100.00;151483.91;5085784;28;20444;-81
2021/11/23 03:01:27;;;;;;;8.87;6.40;;;;;;;0.52;100.00;151503.16;5093127;28;20460;-80
2021/11/23 03:04:02;;;;;;;9.77;7.30;;;;;;;0.44;100.00;151483.91;5093800;28;20780;-81
2021/11/23 03:06:39;;;;;;;11.67;7.10;;;;;;;0.45;100.00;151485.22;5084286;28;20457;-80
2021/11/23 03:09:16;;;;;;;8.37;6.80;;;;;;;0.43;100.00;151480.03;5095073;28;20426;-81
2021/11/23 03:11:51;;;;;;;9.97;7.53;;;;;;;0.42;100.00;151477.50;5093635;28;20442;-81
2021/11/23 03:14:27;;;;;;;10.40;7.00;;;;;;;0.40;100.00;151472.31;5093769;28;20449;-81
2021/11/23 03:17:02;;;;;;;11.93;7.23;;;;;;;0.35;100.00;151460.78;5087178;28;20435;-81
2021/11/23 03:19:38;;;;;;;9.97;7.23;;;;;;;0.31;100.00;151449.25;5093745;28;20919;-81
2021/11/23 03:22:14;;;;;;;9.63;7.50;;;;;;;0.34;100.00;151458.25;5093624;28;20505;-80
2021/11/23 03:24:51;;;;;;;9.03;7.47;;;;;;;0.28;100.00;151442.84;5094192;28;20452;-80
2021/11/23 03:27:26;;;;;;;9.30;7.10;;;;;;;0.32;100.00;151451.84;5076026;28;20471;-81
2021/11/23 03:30:04;;;;;;;10.57;7.30;;;;;;;0.21;100.00;151424.88;5094788;28;20471;-80
2021/11/23 03:32:39;;;;;;;12.47;7.60;;;;;;;0.21;100.00;151423.59;5077811;28;20605;-80
2021/11/23 03:35:15;;;;;;;10.00;6.67;;;;;;;0.26;100.00;151436.41;5086427;28;20663;-81
2021/11/23 03:37:52;;;;;;;10.70;7.20;;;;;;;0.16;100.00;151410.75;5076468;28;20446;-80
2021/11/23 03:40:30;;;;;;;9.93;7.10;;;;;;;0.12;100.00;151400.47;5074962;28;22304;-81
2021/11/23 03:43:07;;;;;;;9.50;7.20;;;;;;;0.15;100.00;151408.19;5094764;28;20414;-80
2021/11/23 03:45:43;;;;;;;10.90;7.97;;;;;;;0.09;100.00;151392.75;5092697;28;20477;-80
2021/11/23 03:48:18;;;;;;;10.10;7.60;;;;;;;0.12;100.00;151400.47;5092780;28;20982;-81
2021/11/23 03:50:54;;;;;;;12.00;7.90;;;;;;;0.08;100.00;151390.22;5086951;28;20587;-80
2021/11/23 03:53:29;;;;;;;11.13;7.50;;;;;;;0.09;100.00;151392.75;5078755;28;20446;-80
2021/11/23 03:56:07;;;;;;;8.87;6.23;;;;;;;0.06;100.00;151386.34;5074987;28;20803;-81
2021/11/23 03:58:42;;;;;;;10.53;8.00;;;;;;;0.10;100.00;151395.34;5082375;28;20422;-80
2021/11/23 04:01:18;;;;;;;10.77;7.57;;;;;;;0.00;100.00;151372.22;5086345;28;20442;-80
2021/11/23 04:03:54;;;;;;;8.37;7.03;;;;;;;-0.01;100.00;151369.69;5092832;28;20441;-81
2021/11/23 04:06:29;;;;;;;11.73;8.27;;;;;;;0.11;100.00;151397.94;5057240;28;20442;-81
2021/11/23 04:09:05;;;;;;;8.50;6.90;;;;;;;0.07;100.00;151387.63;5090402;28;20438;-81
2021/11/23 04:11:42;;;;;;;9.00;6.63;;;;;;;0.05;100.00;151383.81;5079097;28;20430;-81
2021/11/23 04:14:18;;;;;;;9.53;7.13;;;;;;;-0.06;100.00;151356.88;5093049;28;20578;-80
2021/11/23 04:16:53;;;;;;;10.50;7.43;;;;;;;-0.06;100.00;151356.88;5094147;28;20417;-81
2021/11/23 04:19:29;;;;;;;10.20;7.53;;;;;;;-0.11;100.00;151344.00;5092503;28;20936;-81
2021/11/23 04:22:05;;;;;;;11.33;7.73;;;;;;;-0.11;100.00;151344.00;5089120;28;20552;-81
2021/11/23 04:24:41;;;;;;;11.40;7.20;;;;;;;-0.10;100.00;151346.56;5078712;28;20458;-81
2021/11/23 04:27:18;;;;;;;12.93;8.27;;;;;;;-0.12;100.00;151340.16;5092308;28;20887;-81
2021/11/23 04:29:53;;;;;;;11.30;8.10;;;;;;;-0.08;100.00;151351.69;5093260;28;20444;-81
2021/11/23 04:32:30;;;;;;;10.10;7.57;;;;;;;-0.14;100.00;151335.03;5077597;28;20440;-81
2021/11/23 04:35:07;;;;;;;9.63;7.63;;;;;;;-0.10;100.00;151346.56;5072886;28;21018;-81
2021/11/23 04:37:43;;;;;;;11.10;7.70;;;;;;;-0.14;100.00;151336.34;5074158;28;20481;-81
2021/11/23 04:40:19;;;;;;;9.90;8.13;;;;;;;-0.17;100.00;151327.34;5077964;28;20445;-81
2021/11/23 04:42:56;;;;;;;10.53;7.77;;;;;;;-0.16;100.00;151331.16;5088040;28;20443;-81
2021/11/23 04:45:31;;;;;;;11.63;7.73;;;;;;;-0.20;100.00;151319.63;5092512;28;20459;-80
2021/11/23 04:48:08;;;;;;;9.33;6.40;;;;;;;-0.13;100.00;151338.88;5092138;28;20869;-80
2021/11/23 04:50:43;;;;;;;12.80;8.30;;;;;;;-0.21;100.00;151317.03;5083657;28;20963;-81
2021/11/23 04:53:19;;;;;;;11.17;7.70;;;;;;;-0.18;100.00;151326.03;5090547;28;20481;-81
2021/11/23 04:55:54;;;;;;;9.83;6.90;;;;;;;-0.14;100.00;151336.34;5093293;28;20445;-81
2021/11/23 04:58:31;;;;;;;9.13;7.67;;;;;;;-0.18;100.00;151324.75;5090564;28;20444;-81
2021/11/23 05:01:07;;;;;;;12.70;8.07;;;;;;;-0.18;100.00;151324.75;5091857;28;20449;-80
2021/11/23 05:03:42;;;;;;;10.73;8.00;;;;;;;-0.17;100.00;151328.63;5071342;28;20449;-81
2021/11/23 05:06:18;;;;;;;9.37;7.70;;;;;;;-0.25;100.00;151308.09;5091722;28;20829;-81
2021/11/23 05:08:54;;;;;;;10.77;7.30;;;;;;;-0.25;100.00;151306.81;5091438;28;20550;-81
2021/11/23 05:11:32;;;;;;;11.00;7.90;;;;;;;-0.23;100.00;151313.22;5082578;28;20445;-81
2021/11/23 05:14:09;;;;;;;10.90;7.53;;;;;;;-0.28;100.00;151300.41;5076367;28;20442;-81
2021/11/23 05:16:45;;;;;;;9.83;7.27;;;;;;;-0.24;100.00;151309.38;5071006;28;20942;-81
2021/11/23 05:19:20;;;;;;;9.90;7.80;;;;;;;-0.32;100.00;151288.84;5092428;28;20413;-81
2021/11/23 05:21:56;;;;;;;10.87;7.90;;;;;;;-0.31;100.00;151292.69;5081485;28;20469;-81
2021/11/23 05:24:32;;;;;;;9.60;7.27;;;;;;;-0.32;100.00;151290.09;5074345;28;20448;-81
2021/11/23 05:27:08;;;;;;;10.80;7.70;;;;;;;-0.39;100.00;151272.16;5075417;28;20447;-81
2021/11/23 05:29:45;;;;;;;10.70;8.43;;;;;;;-0.44;100.00;151259.34;5077700;28;20538;-80
2021/11/23 05:32:20;;;;;;;12.87;8.20;;;;;;;-0.45;100.00;151256.75;5070752;28;20454;-80
2021/11/23 05:34:56;;;;;;;12.00;9.03;;;;;;;-0.45;100.00;151255.50;5081568;28;20435;-81
2021/11/23 05:37:31;;;;;;;10.87;8.70;;;;;;;-0.38;100.00;151274.75;5043908;28;20961;-81
2021/11/23 05:40:08;;;;;;;11.83;8.20;;;;;;;-0.41;100.00;151267.03;5046957;28;20931;-81
2021/11/23 05:42:44;;;;;;;11.67;8.03;;;;;;;-0.38;100.00;151274.75;5082699;28;20446;-81
2021/11/23 05:45:21;;;;;;;11.40;8.20;;;;;;;-0.44;100.00;151259.34;5055271;28;20438;-81
2021/11/23 05:47:56;;;;;;;11.80;8.67;;;;;;;-0.47;100.00;151250.34;5087907;28;20502;-81
2021/11/23 05:50:32;;;;;;;10.67;8.07;;;;;;;-0.52;100.00;151238.81;5071125;28;20444;-80
2021/11/23 05:53:08;;;;;;;11.40;7.90;;;;;;;-0.50;100.00;151242.69;5073244;28;20445;-81
2021/11/23 05:55:43;;;;;;;13.03;8.00;;;;;;;-0.49;100.00;151245.22;5074312;28;20472;-80
2021/11/23 05:58:19;;;;;;;13.17;8.07;;;;;;;-0.49;100.00;151245.22;5076918;28;20447;-81
2021/11/23 06:00:56;;;;;;;10.90;8.07;;;;;;;-0.53;100.00;151236.22;5092066;28;20447;-81
2021/11/23 06:03:31;;;;;;;11.57;8.47;;;;;;;-0.52;100.00;151237.53;5076002;28;20449;-81
2021/11/23 06:06:07;;;;;;;11.00;7.80;;;;;;;-0.53;100.00;151235.00;5101229;28;20443;-81
2021/11/23 06:08:43;;;;;;;14.83;8.97;;;;;;;-0.49;100.00;151246.53;5077615;28;20455;-80
2021/11/23 06:11:18;;;;;;;10.77;8.27;;;;;;;-0.52;100.00;151238.81;5080685;28;20441;-81
2021/11/23 06:13:54;;;;;;;11.20;8.00;;;;;;;-0.57;100.00;151226.00;5078062;28;20838;-81
2021/11/23 06:16:34;;;;;;;11.70;8.23;;;;;;;-0.58;100.00;151222.16;5071244;28;20464;-81
2021/11/23 06:19:09;;;;;;;12.80;9.07;;;;;;;-0.63;100.00;151210.59;5095454;28;20433;-81
2021/11/23 06:21:44;;;;;;;12.70;8.50;;;;;;;-0.61;100.00;151215.75;5092795;28;21016;-81
2021/11/23 06:24:20;;;;;;;10.93;8.17;;;;;;;-0.62;100.00;151214.47;5094431;28;20436;-81
2021/11/23 06:26:56;;;;;;;14.33;8.47;;;;;;;-0.64;100.00;151209.28;5095358;28;20421;-81
2021/11/23 06:29:31;;;;;;;11.50;7.60;;;;;;;-0.61;100.00;151217.00;5093917;28;20471;-81
2021/11/23 06:32:09;;;;;;;11.77;8.00;;;;;;;-0.54;100.00;151232.41;5094083;28;20442;-81
2021/11/23 06:34:44;;;;;;;11.10;8.37;;;;;;;-0.64;100.00;151209.28;5097839;28;20482;-81
2021/11/23 06:37:20;;;;;;;10.23;7.50;;;;;;;-0.66;100.00;151202.88;5095495;28;20443;-81
2021/11/23 06:39:55;;;;;;;11.80;8.80;;;;;;;-0.65;100.00;151206.75;5101923;28;20455;-81
2021/11/23 06:42:31;;;;;;;10.53;7.53;;;;;;;-0.68;100.00;151197.78;5077092;28;20447;-81
2021/11/23 06:45:08;;;;;;;12.97;8.17;;;;;;;-0.72;100.00;151187.53;5057742;28;20492;-81
2021/11/23 06:48:10;;;;;;;12.00;8.30;;;;;;;-0.73;100.00;151184.94;5092640;28;20466;-81
2021/11/23 06:50:45;;;;;;;11.50;7.70;;;;;;;-0.75;100.00;151179.84;5080009;28;20455;-81
2021/11/23 06:53:21;;;;;;;12.33;9.43;;;;;;;-0.77;100.00;151174.72;5111914;28;20436;-80
2021/11/23 06:55:56;;;;;;;12.40;8.83;;;;;;;-0.81;100.00;151164.44;5082850;28;20449;-80
2021/11/23 06:58:35;;;;;;;13.83;9.43;;;;;;;-0.84;100.00;151156.72;5093880;28;20453;-80
2021/11/23 07:01:11;;;;;;;15.53;9.20;;;;;;;-0.85;100.00;151155.44;5096752;28;20453;-81
2021/11/23 07:03:48;;;;;;;14.30;8.93;;;;;;;-0.84;100.00;151156.72;5076843;28;20445;-81
2021/11/23 07:06:24;;;;;;;11.80;8.17;;;;;;;-0.83;100.00;151159.31;5076931;28;20484;-80
2021/11/23 07:08:59;;;;;;;11.63;8.40;;;;;;;-0.80;100.00;151168.31;5084689;28;20465;-80
2021/11/23 07:11:35;;;;;;;13.87;10.17;;;;;;;-0.76;100.00;151178.53;5083427;28;20441;-80
2021/11/23 07:14:12;;;;;;;12.87;9.87;;;;;;;-0.69;100.00;151196.47;5091996;28;20455;-81
2021/11/23 07:16:47;;;;;;;14.27;10.40;;;;;;;-0.53;100.00;151236.22;5097418;28;20427;-81
2021/11/23 07:19:24;;;;;;;14.17;9.30;;;;;;;-0.43;100.00;151261.94;5080125;28;20442;-81
2021/11/23 07:21:59;;;;;;;13.67;10.00;;;;;;;-0.38;100.00;151274.75;5100636;28;20476;-80
2021/11/23 07:24:35;;;;;;;12.60;9.47;;;;;;;-0.35;100.00;151282.44;5092114;28;20453;-81
2021/11/23 07:27:10;;;;;;;14.40;11.27;;;;;;;-0.34;100.00;151283.69;5094424;28;20464;-81
2021/11/23 07:29:46;;;;;;;16.67;10.73;;;;;;;-0.27;100.00;151301.69;5096935;28;20483;-81
2021/11/23 07:32:22;;;;;;;12.97;10.47;;;;;;;-0.20;100.00;151320.91;5085324;28;20441;-80
2021/11/23 07:34:59;;;;;;;15.07;10.50;;;;;;;-0.13;100.00;151338.88;5073312;28;20452;-80
2021/11/23 07:37:39;;;;;;;12.03;9.37;;;;;;;-0.13;100.00;151338.88;5092484;28;20837;-81
2021/11/23 07:40:14;;;;;;;11.67;8.40;;;;;;;-0.05;100.00;151359.41;5092898;28;20445;-82
2021/11/23 07:42:50;;;;;;;13.43;8.93;;;;;;;-0.03;100.00;151363.28;5093433;28;20452;-81
2021/11/23 07:45:25;;;;;;;12.43;8.90;;;;;;;-0.03;100.00;151364.53;5094157;28;20450;-81
2021/11/23 07:48:01;;;;;;;10.90;8.43;;;;;;;-0.02;100.00;151365.81;5093151;28;20814;-81
2021/11/23 07:50:39;;;;;;;14.37;8.70;;;;;;;-0.02;100.00;151367.09;5077485;28;20811;-81
2021/11/23 07:53:14;;;;;;;12.27;9.37;;;;;;;0.09;100.00;151394.06;5093293;28;20931;-81
2021/11/23 07:55:51;;;;;;;13.03;9.50;;;;;;;0.07;100.00;151387.63;5093353;28;20454;-81
2021/11/23 07:58:27;;;;;;;12.20;9.20;;;;;;;0.06;100.00;151386.34;5084620;28;20489;-81
2021/11/23 08:01:03;;;;;;;13.20;9.43;;;;;;;0.09;100.00;151394.06;5075783;28;21113;-81
2021/11/23 08:03:39;;;;;;;11.88;8.43;;;;;;;0.14;100.00;151405.59;5093481;28;20518;-89
2021/11/23 08:06:16;;;;;;;11.10;8.17;;;;;;;0.16;100.00;151410.75;5089784;28;20232;-81
2021/11/23 08:08:51;;;;;;;10.43;8.10;;;;;;;0.16;100.00;151412.00;5108900;28;20470;-81
2021/11/23 08:11:27;;;;;;;12.33;9.83;;;;;;;0.20;100.00;151421.00;5092282;28;20533;-80
2021/11/23 08:14:03;;;;;;;12.93;8.17;;;;;;;0.25;100.00;151433.84;5096900;28;20439;-82
2021/11/23 08:16:39;;;;;;;10.67;8.60;;;;;;;0.22;100.00;151426.13;5104959;28;20438;-81
2021/11/23 08:19:14;;;;;;;12.20;8.73;;;;;;;0.24;100.00;151431.28;5076190;28;20531;-82
2021/11/23 08:21:51;;;;;;;14.00;9.90;;;;;;;0.37;100.00;151465.91;5096019;28;20467;-81
2021/11/23 08:24:26;;;;;;;14.80;10.67;;;;;;;0.42;100.00;151477.50;5079485;28;20526;-81
2021/11/23 08:27:02;;;;;;;11.87;9.20;;;;;;;0.41;100.00;151474.91;5095421;28;20466;-81
2021/11/23 08:29:38;;;;;;;13.20;9.30;;;;;;;0.46;100.00;151487.75;5093193;28;20476;-82
2021/11/23 08:32:14;;;;;;;11.27;9.30;;;;;;;0.44;100.00;151483.91;5094957;28;20436;-81
2021/11/23 08:34:49;;;;;;;14.03;9.33;;;;;;;0.39;100.00;151469.78;5093343;28;20457;-81
2021/11/23 08:37:27;;;;;;;13.03;8.63;;;;;;;0.45;100.00;151486.44;5094061;28;20479;-81
2021/11/23 08:40:04;;;;;;;12.03;8.90;;;;;;;0.48;100.00;151492.88;5095506;28;20554;-81
2021/11/23 08:42:39;;;;;;;14.30;9.53;;;;;;;0.42;100.00;151477.50;5095412;28;20519;-81
2021/11/23 08:45:15;;;;;;;11.03;9.17;;;;;;;0.40;100.00;151473.63;5094839;28;20442;-81
2021/11/23 08:47:51;;;;;;;12.00;9.17;;;;;;;0.47;100.00;151490.34;5092893;28;20440;-81
2021/11/23 08:50:27;;;;;;;14.60;9.10;;;;;;;0.41;100.00;151474.91;5074998;28;20453;-82
2021/11/23 08:53:07;;;;;;;11.30;8.67;;;;;;;0.47;100.00;151490.34;5076767;28;20441;-81
2021/11/23 08:55:43;;;;;;;12.87;8.30;;;;;;;0.50;100.00;151498.03;5091144;28;20454;-81
2021/11/23 08:58:18;;;;;;;11.30;9.47;;;;;;;0.55;100.00;151510.88;5094879;28;20436;-81
2021/11/23 09:00:54;;;;;;;14.83;10.67;;;;;;;0.55;100.00;151510.88;5093741;28;20454;-81
2021/11/23 09:03:30;;;;;;;13.07;9.27;;;;;;;0.53;100.00;151507.00;5089579;28;20530;-81
2021/11/23 09:06:06;;;;;;;14.13;10.20;;;;;;;0.60;100.00;151523.72;5093245;28;20455;-81
2021/11/23 09:08:53;;;;;;;13.40;9.70;;;;;;;0.59;100.00;151521.13;5095361;28;20823;-81
2021/11/23 09:11:29;;;;;;;15.73;9.73;;;;;;;0.64;100.00;151532.72;5095199;28;20535;-81
2021/11/23 09:14:08;;;;;;;11.20;8.50;;;;;;;0.65;100.00;151536.53;5090370;28;20747;-81
2021/11/23 09:16:43;;;;;;;13.00;9.53;;;;;;;0.75;100.00;151560.91;5093827;28;20445;-81
2021/11/23 09:19:19;;;;;;;12.03;9.10;;;;;;;0.82;100.00;151580.16;5090767;28;20862;-81
2021/11/23 09:21:55;;;;;;;13.10;9.47;;;;;;;0.75;100.00;151560.91;5091685;28;20847;-81
2021/11/23 09:24:32;;;;;;;12.60;9.20;;;;;;;0.74;100.00;151558.38;5092935;28;20448;-81
2021/11/23 09:27:08;;;;;;;10.80;8.47;;;;;;;0.68;100.00;151542.97;5094386;28;20442;-81
2021/11/23 09:29:43;;;;;;;12.10;9.07;;;;;;;0.70;100.00;151549.38;5094174;28;20893;-81
2021/11/23 09:32:19;;;;;;;12.33;9.87;;;;;;;0.74;100.00;151559.66;5112398;28;20459;-81
2021/11/23 09:34:56;;;;;;;17.43;10.20;;;;;;;0.92;100.00;151605.91;5110303;28;20455;-81
2021/11/23 09:37:32;;;;;;;13.13;9.70;;;;;;;0.95;100.00;151613.59;5074211;28;20822;-81
2021/11/23 09:40:10;;;;;;;11.67;8.47;;;;;;;0.91;100.00;151603.31;5090487;28;20441;-81
2021/11/23 09:42:46;;;;;;;11.90;9.17;;;;;;;0.90;100.00;151600.72;5110896;28;20908;-81
2021/11/23 09:45:23;;;;;;;13.47;9.97;;;;;;;0.98;100.00;151621.28;5084345;28;20939;-81
2021/11/23 09:48:04;;;;;;;13.50;10.03;;;;;;;1.12;99.81;151657.25;5090363;28;20436;-81
2021/11/23 09:50:41;;;;;;;11.57;8.10;;;;;;;1.09;99.94;151649.53;5073611;28;20884;-81
2021/11/23 09:53:18;;;;;;;12.50;9.30;;;;;;;1.07;100.00;151644.41;5091319;28;20464;-81
2021/11/23 09:55:54;;;;;;;13.60;10.03;;;;;;;1.15;99.90;151663.66;5092987;28;20439;-80
2021/11/23 09:58:30;;;;;;;11.83;10.10;;;;;;;1.23;99.00;151685.53;5089547;28;20437;-81
2021/11/23 10:01:08;;;;;;;11.83;8.80;;;;;;;1.28;98.54;151697.06;5111650;28;20451;-81
2021/11/23 10:03:43;;;;;;;11.30;9.30;;;;;;;1.28;96.70;151695.78;5094689;28;20434;-80
2021/11/23 10:06:22;;;;;;;11.70;8.53;;;;;;;1.30;97.22;151700.94;5078422;28;20549;-80
2021/11/23 10:08:57;;;;;;;12.33;9.50;;;;;;;1.35;97.66;151713.78;5091683;28;20527;-81
2021/11/23 10:11:35;;;;;;;13.17;9.07;;;;;;;1.32;97.41;151707.38;5093736;28;21082;-81
2021/11/23 10:14:11;;;;;;;13.03;9.10;;;;;;;1.31;97.31;151704.78;5110822;28;20431;-80
2021/11/23 10:16:47;;;;;;;11.57;8.63;;;;;;;1.42;98.64;151733.06;5076109;28;20447;-80
2021/11/23 10:19:36;;;;;;;11.23;8.23;;;;;;;1.49;96.29;151751.03;5085575;28;20477;-81
2021/11/23 10:22:28;;;;;;;12.80;9.60;;;;;;;1.57;95.55;151770.28;5093667;28;21016;-80
2021/11/23 10:25:06;;;;;;;10.27;8.40;;;;;;;1.55;97.25;151766.47;5078673;28;20444;-80
2021/11/23 10:27:44;;;;;;;12.10;9.53;;;;;;;1.65;97.89;151790.84;5090966;28;20432;-80
2021/11/23 10:30:20;;;;;;;11.03;8.30;;;;;;;1.70;95.60;151803.69;5107452;28;21007;-80
2021/11/23 10:32:55;;;;;;;13.17;8.53;;;;;;;1.73;95.92;151812.72;5094289;28;20436;-80
2021/11/23 10:35:31;;;;;;;10.90;8.13;;;;;;;1.84;95.08;151839.72;5103481;28;20455;-80
2021/11/23 10:38:08;;;;;;;11.70;8.30;;;;;;;1.77;94.87;151822.97;5089116;28;20782;-80
2021/11/23 10:40:46;;;;;;;8.57;7.00;;;;;;;1.89;94.79;151852.56;5096566;28;20540;-79
2021/11/23 10:43:24;;;;;;;10.47;7.70;;;;;;;1.88;93.90;151849.97;5062440;28;20791;-80
2021/11/23 10:45:59;;;;;;;10.70;7.07;;;;;;;1.92;95.22;151860.28;5079673;28;20832;-80
2021/11/23 10:48:35;;;;;;;10.50;7.20;;;;;;;1.94;93.25;151865.41;5087158;28;20884;-80
2021/11/23 10:51:13;;;;;;;9.07;6.50;;;;;;;2.04;93.84;151889.84;5083734;28;20452;-80
2021/11/23 10:53:48;;;;;;;9.30;8.00;;;;;;;2.12;92.59;151911.69;5087744;28;20524;-80
2021/11/23 10:56:24;;;;;;;11.73;7.00;;;;;;;2.20;91.03;151932.25;5101494;28;20442;-80
2021/11/23 10:59:00;;;;;;;9.30;8.00;;;;;;;2.09;92.27;151903.94;5098028;28;20538;-80
2021/11/23 11:01:36;;;;;;;9.87;7.30;;;;;;;2.21;92.47;151934.84;5108074;28;20507;-80
2021/11/23 11:04:12;;;;;;;8.37;6.63;;;;;;;2.25;90.98;151945.09;5094737;28;20453;-80
2021/11/23 11:06:48;;;;;;;8.93;7.37;;;;;;;2.41;90.93;151986.25;5085488;28;20484;-80
2021/11/23 11:09:24;;;;;;;9.10;6.67;;;;;;;2.40;88.79;151983.72;5102856;28;20463;-80
2021/11/23 11:12:00;;;;;;;10.20;7.33;;;;;;;2.36;89.20;151972.09;5076462;28;20515;-81
2021/11/23 11:14:39;;;;;;;8.67;7.23;;;;;;;2.32;90.26;151961.84;5090239;28;20445;-80
2021/11/23 11:17:15;;;;;;;9.40;7.53;;;;;;;2.51;90.30;152009.41;5086365;28;20458;-80
2021/11/23 11:19:52;;;;;;;8.23;6.53;;;;;;;2.43;89.81;151991.44;5086530;28;20450;-80
2021/11/23 11:22:29;;;;;;;9.53;7.27;;;;;;;2.53;90.75;152015.84;5090003;28;20526;-80
2021/11/23 11:25:10;;;;;;;8.30;6.50;;;;;;;2.70;87.78;152058.31;5092401;28;20434;-80
2021/11/23 11:27:47;;;;;;;7.53;6.70;;;;;;;2.76;88.36;152075.00;5115067;28;20524;-80
2021/11/23 11:30:31;;;;;;;8.33;6.50;;;;;;;2.79;87.02;152081.44;5093395;28;20470;-80
2021/11/23 11:33:14;;;;;;;10.17;7.00;;;;;;;2.78;86.97;152080.13;5087667;28;20433;-80
2021/11/23 11:35:52;;;;;;;6.40;5.77;;;;;;;2.83;87.40;152091.75;5103421;28;20944;-80
2021/11/23 11:38:40;;;;;;;7.07;5.77;;;;;;;2.80;87.76;152084.03;5089091;28;20449;-80
2021/11/23 11:41:35;;;;;;;8.30;6.53;;;;;;;2.79;87.63;152081.44;5088829;28;20442;-80
2021/11/23 11:44:14;;;;;;;10.07;6.53;;;;;;;2.94;86.60;152120.00;5102224;28;20441;-80
2021/11/23 11:47:05;;;;;;;6.40;5.80;;;;;;;2.89;86.49;152108.44;5110908;28;20426;-80
2021/11/23 11:49:52;;;;;;;6.87;5.60;;;;;;;2.88;86.42;152104.59;5090615;28;20477;-80
2021/11/23 11:52:33;;;;;;;7.07;5.27;;;;;;;2.87;86.55;152103.31;5084118;28;20445;-80
2021/11/23 11:55:15;;;;;;;6.90;5.27;;;;;;;2.98;86.65;152130.31;5087047;28;20943;-80
2021/11/23 11:57:53;;;;;;;6.90;5.63;;;;;;;3.02;86.33;152140.59;5080632;28;20462;-80
2021/11/23 12:00:31;;;;;;;8.30;5.70;;;;;;;3.13;85.82;152168.91;5086417;28;20532;-80
2021/11/23 12:03:37;;;;;;;7.60;5.53;;;;;;;3.09;85.53;152158.66;5086862;28;20444;-80